sensor_id;sensor_type;location;lat;lon;timestamp;P1;durP1;ratioP1;P2;durP2;ratioP2
21959;SDS011;11144;43.030;25.108;2023-12-29T00:00:11;60.15;;;24.23;;
21959;SDS011;11144;43.030;25.108;2023-12-29T00:01:45;50.58;;;23.05;;
21959;SDS011;11144;43.030;25.108;2023-12-29T00:03:18;40.78;;;20.90;;
21959;SDS011;11144;43.030;25.108;2023-12-29T00:04:51;36.53;;;16.92;;
21959;SDS011;11144;43.030;25.108;2023-12-29T00:06:25;41.90;;;18.00;;
21959;SDS011;11144;43.030;25.108;2023-12-29T00:07:58;41.97;;;19.17;;
21959;SDS011;11144;43.030;25.108;2023-12-29T00:09:31;48.72;;;21.35;;
21959;SDS011;11144;43.030;25.108;2023-12-29T00:11:16;47.35;;;18.88;;
21959;SDS011;11144;43.030;25.108;2023-12-29T00:12:50;49.65;;;20.58;;
21959;SDS011;11144;43.030;25.108;2023-12-29T00:14:22;51.33;;;20.33;;
21959;SDS011;11144;43.030;25.108;2023-12-29T00:15:55;46.33;;;21.65;;
21959;SDS011;11144;43.030;25.108;2023-12-29T00:17:28;48.95;;;20.65;;
21959;SDS011;11144;43.030;25.108;2023-12-29T00:19:01;49.53;;;23.00;;
21959;SDS011;11144;43.030;25.108;2023-12-29T00:20:35;58.55;;;25.88;;
21959;SDS011;11144;43.030;25.108;2023-12-29T00:22:12;54.45;;;24.27;;
21959;SDS011;11144;43.030;25.108;2023-12-29T00:23:45;58.50;;;25.75;;
21959;SDS011;11144;43.030;25.108;2023-12-29T00:25:18;57.63;;;26.98;;
21959;SDS011;11144;43.030;25.108;2023-12-29T00:26:51;107.13;;;38.53;;
21959;SDS011;11144;43.030;25.108;2023-12-29T00:28:24;53.95;;;24.08;;
21959;SDS011;11144;43.030;25.108;2023-12-29T00:29:57;42.25;;;18.27;;
21959;SDS011;11144;43.030;25.108;2023-12-29T00:31:29;48.22;;;20.75;;
21959;SDS011;11144;43.030;25.108;2023-12-29T00:33:03;50.55;;;20.70;;
21959;SDS011;11144;43.030;25.108;2023-12-29T00:34:37;48.42;;;21.83;;
21959;SDS011;11144;43.030;25.108;2023-12-29T00:36:15;47.40;;;19.90;;
21959;SDS011;11144;43.030;25.108;2023-12-29T00:37:49;40.17;;;15.63;;
21959;SDS011;11144;43.030;25.108;2023-12-29T00:39:23;25.17;;;11.20;;
21959;SDS011;11144;43.030;25.108;2023-12-29T00:41:00;29.55;;;13.10;;
21959;SDS011;11144;43.030;25.108;2023-12-29T00:42:33;26.88;;;12.45;;
21959;SDS011;11144;43.030;25.108;2023-12-29T00:44:06;26.50;;;12.43;;
21959;SDS011;11144;43.030;25.108;2023-12-29T00:45:39;25.73;;;11.30;;
21959;SDS011;11144;43.030;25.108;2023-12-29T00:47:12;32.28;;;14.73;;
21959;SDS011;11144;43.030;25.108;2023-12-29T00:48:46;37.38;;;17.52;;
21959;SDS011;11144;43.030;25.108;2023-12-29T00:50:18;39.22;;;17.58;;
21959;SDS011;11144;43.030;25.108;2023-12-29T00:51:53;36.63;;;16.90;;
21959;SDS011;11144;43.030;25.108;2023-12-29T00:53:26;43.30;;;19.52;;
21959;SDS011;11144;43.030;25.108;2023-12-29T00:55:00;27.70;;;13.07;;
21959;SDS011;11144;43.030;25.108;2023-12-29T00:56:34;23.98;;;11.25;;
21959;SDS011;11144;43.030;25.108;2023-12-29T00:58:06;24.73;;;12.13;;
21959;SDS011;11144;43.030;25.108;2023-12-29T00:59:40;32.92;;;16.48;;
21959;SDS011;11144;43.030;25.108;2023-12-29T01:01:13;27.20;;;13.32;;
21959;SDS011;11144;43.030;25.108;2023-12-29T01:02:47;23.33;;;11.50;;
21959;SDS011;11144;43.030;25.108;2023-12-29T01:04:19;23.95;;;9.82;;
21959;SDS011;11144;43.030;25.108;2023-12-29T01:05:53;15.25;;;8.63;;
21959;SDS011;11144;43.030;25.108;2023-12-29T01:07:26;18.52;;;9.18;;
21959;SDS011;11144;43.030;25.108;2023-12-29T01:09:00;20.65;;;9.05;;
21959;SDS011;11144;43.030;25.108;2023-12-29T01:10:32;18.45;;;9.27;;
21959;SDS011;11144;43.030;25.108;2023-12-29T01:12:06;22.60;;;9.35;;
21959;SDS011;11144;43.030;25.108;2023-12-29T01:13:38;22.83;;;10.32;;
21959;SDS011;11144;43.030;25.108;2023-12-29T01:15:11;30.40;;;12.27;;
21959;SDS011;11144;43.030;25.108;2023-12-29T01:16:43;23.83;;;10.57;;
21959;SDS011;11144;43.030;25.108;2023-12-29T01:18:17;23.27;;;10.02;;
21959;SDS011;11144;43.030;25.108;2023-12-29T01:19:53;24.90;;;10.57;;
21959;SDS011;11144;43.030;25.108;2023-12-29T01:21:26;22.92;;;11.10;;
21959;SDS011;11144;43.030;25.108;2023-12-29T01:23:01;20.95;;;9.60;;
21959;SDS011;11144;43.030;25.108;2023-12-29T01:24:33;35.35;;;12.48;;
21959;SDS011;11144;43.030;25.108;2023-12-29T01:26:16;40.60;;;13.13;;
21959;SDS011;11144;43.030;25.108;2023-12-29T01:27:49;29.45;;;14.18;;
21959;SDS011;11144;43.030;25.108;2023-12-29T01:29:22;22.17;;;12.30;;
21959;SDS011;11144;43.030;25.108;2023-12-29T01:30:55;29.55;;;12.68;;
21959;SDS011;11144;43.030;25.108;2023-12-29T01:32:28;27.38;;;11.38;;
21959;SDS011;11144;43.030;25.108;2023-12-29T01:34:01;26.48;;;10.75;;
21959;SDS011;11144;43.030;25.108;2023-12-29T01:35:34;19.75;;;9.55;;
21959;SDS011;11144;43.030;25.108;2023-12-29T01:37:07;22.00;;;9.48;;
21959;SDS011;11144;43.030;25.108;2023-12-29T01:38:42;21.55;;;9.68;;
21959;SDS011;11144;43.030;25.108;2023-12-29T01:40:15;18.38;;;9.23;;
21959;SDS011;11144;43.030;25.108;2023-12-29T01:41:49;17.23;;;8.35;;
21959;SDS011;11144;43.030;25.108;2023-12-29T01:43:23;14.05;;;8.40;;
21959;SDS011;11144;43.030;25.108;2023-12-29T01:44:55;14.93;;;7.10;;
21959;SDS011;11144;43.030;25.108;2023-12-29T01:46:29;21.58;;;9.77;;
21959;SDS011;11144;43.030;25.108;2023-12-29T01:48:03;22.55;;;10.15;;
21959;SDS011;11144;43.030;25.108;2023-12-29T01:49:38;19.05;;;9.55;;
21959;SDS011;11144;43.030;25.108;2023-12-29T01:51:11;21.45;;;10.25;;
21959;SDS011;11144;43.030;25.108;2023-12-29T01:52:44;18.70;;;10.00;;
21959;SDS011;11144;43.030;25.108;2023-12-29T01:54:21;17.70;;;9.40;;
21959;SDS011;11144;43.030;25.108;2023-12-29T01:55:55;22.02;;;9.70;;
21959;SDS011;11144;43.030;25.108;2023-12-29T01:57:30;18.05;;;9.27;;
21959;SDS011;11144;43.030;25.108;2023-12-29T01:59:06;19.52;;;9.93;;
21959;SDS011;11144;43.030;25.108;2023-12-29T02:00:50;16.88;;;9.25;;
21959;SDS011;11144;43.030;25.108;2023-12-29T02:02:22;18.90;;;9.43;;
21959;SDS011;11144;43.030;25.108;2023-12-29T02:03:55;27.23;;;10.18;;
21959;SDS011;11144;43.030;25.108;2023-12-29T02:05:28;15.82;;;9.13;;
21959;SDS011;11144;43.030;25.108;2023-12-29T02:07:03;22.27;;;10.10;;
21959;SDS011;11144;43.030;25.108;2023-12-29T02:08:36;22.42;;;11.93;;
21959;SDS011;11144;43.030;25.108;2023-12-29T02:10:11;23.60;;;11.15;;
21959;SDS011;11144;43.030;25.108;2023-12-29T02:11:47;27.25;;;12.07;;
21959;SDS011;11144;43.030;25.108;2023-12-29T02:13:21;21.83;;;11.15;;
21959;SDS011;11144;43.030;25.108;2023-12-29T02:14:54;25.90;;;11.48;;
21959;SDS011;11144;43.030;25.108;2023-12-29T02:16:29;27.00;;;11.65;;
21959;SDS011;11144;43.030;25.108;2023-12-29T02:18:09;23.20;;;10.48;;
21959;SDS011;11144;43.030;25.108;2023-12-29T02:19:47;17.45;;;8.98;;
21959;SDS011;11144;43.030;25.108;2023-12-29T02:21:22;13.32;;;7.43;;
21959;SDS011;11144;43.030;25.108;2023-12-29T02:22:56;22.85;;;10.32;;
21959;SDS011;11144;43.030;25.108;2023-12-29T02:24:30;18.85;;;9.20;;
21959;SDS011;11144;43.030;25.108;2023-12-29T02:26:06;26.63;;;12.52;;
21959;SDS011;11144;43.030;25.108;2023-12-29T02:27:43;27.63;;;13.02;;
21959;SDS011;11144;43.030;25.108;2023-12-29T02:29:21;22.05;;;11.20;;
21959;SDS011;11144;43.030;25.108;2023-12-29T02:30:59;21.65;;;10.65;;
21959;SDS011;11144;43.030;25.108;2023-12-29T02:32:38;19.05;;;10.90;;
21959;SDS011;11144;43.030;25.108;2023-12-29T02:34:13;22.60;;;10.35;;
21959;SDS011;11144;43.030;25.108;2023-12-29T02:35:48;14.43;;;7.82;;
21959;SDS011;11144;43.030;25.108;2023-12-29T02:37:24;24.77;;;11.75;;
21959;SDS011;11144;43.030;25.108;2023-12-29T02:39:00;42.30;;;16.83;;
21959;SDS011;11144;43.030;25.108;2023-12-29T02:40:32;27.27;;;11.73;;
21959;SDS011;11144;43.030;25.108;2023-12-29T02:42:07;19.00;;;9.23;;
21959;SDS011;11144;43.030;25.108;2023-12-29T02:43:39;28.52;;;13.00;;
21959;SDS011;11144;43.030;25.108;2023-12-29T02:45:13;28.10;;;14.65;;
21959;SDS011;11144;43.030;25.108;2023-12-29T02:46:45;26.85;;;14.27;;
21959;SDS011;11144;43.030;25.108;2023-12-29T02:48:18;33.05;;;16.05;;
21959;SDS011;11144;43.030;25.108;2023-12-29T02:49:51;35.15;;;15.55;;
21959;SDS011;11144;43.030;25.108;2023-12-29T02:51:24;34.42;;;16.95;;
21959;SDS011;11144;43.030;25.108;2023-12-29T02:52:57;31.85;;;16.25;;
21959;SDS011;11144;43.030;25.108;2023-12-29T02:54:30;40.72;;;16.65;;
21959;SDS011;11144;43.030;25.108;2023-12-29T02:56:03;39.42;;;15.73;;
21959;SDS011;11144;43.030;25.108;2023-12-29T02:57:37;22.58;;;12.20;;
21959;SDS011;11144;43.030;25.108;2023-12-29T02:59:11;23.33;;;12.00;;
21959;SDS011;11144;43.030;25.108;2023-12-29T03:00:45;34.15;;;14.73;;
21959;SDS011;11144;43.030;25.108;2023-12-29T03:02:18;31.67;;;14.75;;
21959;SDS011;11144;43.030;25.108;2023-12-29T03:03:52;29.10;;;14.80;;
21959;SDS011;11144;43.030;25.108;2023-12-29T03:05:24;29.90;;;13.35;;
21959;SDS011;11144;43.030;25.108;2023-12-29T03:06:57;20.73;;;9.80;;
21959;SDS011;11144;43.030;25.108;2023-12-29T03:08:30;20.90;;;10.25;;
21959;SDS011;11144;43.030;25.108;2023-12-29T03:10:04;23.50;;;9.60;;
21959;SDS011;11144;43.030;25.108;2023-12-29T03:11:37;28.80;;;13.05;;
21959;SDS011;11144;43.030;25.108;2023-12-29T03:13:12;15.77;;;8.18;;
21959;SDS011;11144;43.030;25.108;2023-12-29T03:14:44;13.07;;;7.20;;
21959;SDS011;11144;43.030;25.108;2023-12-29T03:16:18;13.23;;;7.07;;
21959;SDS011;11144;43.030;25.108;2023-12-29T03:17:51;12.35;;;6.05;;
21959;SDS011;11144;43.030;25.108;2023-12-29T03:19:25;11.35;;;6.13;;
21959;SDS011;11144;43.030;25.108;2023-12-29T03:20:59;12.85;;;6.55;;
21959;SDS011;11144;43.030;25.108;2023-12-29T03:22:32;12.25;;;6.57;;
21959;SDS011;11144;43.030;25.108;2023-12-29T03:24:05;18.17;;;7.07;;
21959;SDS011;11144;43.030;25.108;2023-12-29T03:25:38;14.82;;;6.57;;
21959;SDS011;11144;43.030;25.108;2023-12-29T03:27:12;13.32;;;7.25;;
21959;SDS011;11144;43.030;25.108;2023-12-29T03:28:45;16.67;;;8.48;;
21959;SDS011;11144;43.030;25.108;2023-12-29T03:30:19;15.80;;;7.65;;
21959;SDS011;11144;43.030;25.108;2023-12-29T03:31:51;14.65;;;6.75;;
21959;SDS011;11144;43.030;25.108;2023-12-29T03:33:24;13.70;;;6.75;;
21959;SDS011;11144;43.030;25.108;2023-12-29T03:34:58;15.40;;;6.93;;
21959;SDS011;11144;43.030;25.108;2023-12-29T03:36:31;15.23;;;7.75;;
21959;SDS011;11144;43.030;25.108;2023-12-29T03:38:06;15.93;;;8.77;;
21959;SDS011;11144;43.030;25.108;2023-12-29T03:39:40;16.20;;;7.93;;
21959;SDS011;11144;43.030;25.108;2023-12-29T03:41:13;20.27;;;10.13;;
21959;SDS011;11144;43.030;25.108;2023-12-29T03:42:46;16.20;;;8.18;;
21959;SDS011;11144;43.030;25.108;2023-12-29T03:44:20;15.02;;;8.68;;
21959;SDS011;11144;43.030;25.108;2023-12-29T03:45:54;14.77;;;8.35;;
21959;SDS011;11144;43.030;25.108;2023-12-29T03:47:28;18.67;;;8.93;;
21959;SDS011;11144;43.030;25.108;2023-12-29T03:49:03;18.85;;;9.07;;
21959;SDS011;11144;43.030;25.108;2023-12-29T03:50:36;16.67;;;8.70;;
21959;SDS011;11144;43.030;25.108;2023-12-29T03:52:09;19.55;;;10.32;;
21959;SDS011;11144;43.030;25.108;2023-12-29T03:53:42;21.45;;;10.80;;
21959;SDS011;11144;43.030;25.108;2023-12-29T03:55:14;19.27;;;9.75;;
21959;SDS011;11144;43.030;25.108;2023-12-29T03:56:48;16.85;;;8.43;;
21959;SDS011;11144;43.030;25.108;2023-12-29T03:58:20;20.25;;;9.73;;
21959;SDS011;11144;43.030;25.108;2023-12-29T03:59:55;26.55;;;10.52;;
21959;SDS011;11144;43.030;25.108;2023-12-29T04:01:28;19.75;;;10.73;;
21959;SDS011;11144;43.030;25.108;2023-12-29T04:03:00;20.65;;;10.50;;
21959;SDS011;11144;43.030;25.108;2023-12-29T04:04:36;21.17;;;9.32;;
21959;SDS011;11144;43.030;25.108;2023-12-29T04:06:09;17.08;;;9.27;;
21959;SDS011;11144;43.030;25.108;2023-12-29T04:07:42;17.20;;;9.25;;
21959;SDS011;11144;43.030;25.108;2023-12-29T04:09:15;17.20;;;9.90;;
21959;SDS011;11144;43.030;25.108;2023-12-29T04:10:48;18.02;;;9.35;;
21959;SDS011;11144;43.030;25.108;2023-12-29T04:12:22;18.50;;;9.63;;
21959;SDS011;11144;43.030;25.108;2023-12-29T04:13:55;20.63;;;8.02;;
21959;SDS011;11144;43.030;25.108;2023-12-29T04:15:30;18.13;;;9.68;;
21959;SDS011;11144;43.030;25.108;2023-12-29T04:17:03;18.38;;;9.43;;
21959;SDS011;11144;43.030;25.108;2023-12-29T04:18:45;17.90;;;9.13;;
21959;SDS011;11144;43.030;25.108;2023-12-29T04:20:18;19.60;;;9.30;;
21959;SDS011;11144;43.030;25.108;2023-12-29T04:21:51;23.02;;;10.02;;
21959;SDS011;11144;43.030;25.108;2023-12-29T04:23:23;28.45;;;11.73;;
21959;SDS011;11144;43.030;25.108;2023-12-29T04:24:57;18.80;;;10.00;;
21959;SDS011;11144;43.030;25.108;2023-12-29T04:26:29;21.40;;;10.68;;
21959;SDS011;11144;43.030;25.108;2023-12-29T04:28:02;20.50;;;11.52;;
21959;SDS011;11144;43.030;25.108;2023-12-29T04:29:35;29.42;;;13.95;;
21959;SDS011;11144;43.030;25.108;2023-12-29T04:31:10;30.38;;;14.18;;
21959;SDS011;11144;43.030;25.108;2023-12-29T04:32:43;29.15;;;13.63;;
21959;SDS011;11144;43.030;25.108;2023-12-29T04:34:16;24.80;;;11.80;;
21959;SDS011;11144;43.030;25.108;2023-12-29T04:35:49;26.45;;;12.48;;
21959;SDS011;11144;43.030;25.108;2023-12-29T04:37:22;27.25;;;12.38;;
21959;SDS011;11144;43.030;25.108;2023-12-29T04:38:56;24.20;;;11.77;;
21959;SDS011;11144;43.030;25.108;2023-12-29T04:40:28;30.10;;;15.63;;
21959;SDS011;11144;43.030;25.108;2023-12-29T04:42:01;42.35;;;20.80;;
21959;SDS011;11144;43.030;25.108;2023-12-29T04:43:34;39.72;;;19.17;;
21959;SDS011;11144;43.030;25.108;2023-12-29T04:45:07;49.47;;;22.13;;
21959;SDS011;11144;43.030;25.108;2023-12-29T04:46:41;30.92;;;15.65;;
21959;SDS011;11144;43.030;25.108;2023-12-29T04:48:15;39.97;;;18.73;;
21959;SDS011;11144;43.030;25.108;2023-12-29T04:49:47;37.85;;;18.70;;
21959;SDS011;11144;43.030;25.108;2023-12-29T04:51:21;42.72;;;20.55;;
21959;SDS011;11144;43.030;25.108;2023-12-29T04:52:53;48.03;;;22.33;;
21959;SDS011;11144;43.030;25.108;2023-12-29T04:54:27;52.22;;;22.77;;
21959;SDS011;11144;43.030;25.108;2023-12-29T04:55:59;50.97;;;26.25;;
21959;SDS011;11144;43.030;25.108;2023-12-29T04:57:32;55.45;;;27.63;;
21959;SDS011;11144;43.030;25.108;2023-12-29T04:59:04;55.35;;;27.58;;
21959;SDS011;11144;43.030;25.108;2023-12-29T05:00:38;56.75;;;27.10;;
21959;SDS011;11144;43.030;25.108;2023-12-29T05:02:12;61.53;;;28.00;;
21959;SDS011;11144;43.030;25.108;2023-12-29T05:03:46;63.35;;;31.00;;
21959;SDS011;11144;43.030;25.108;2023-12-29T05:05:18;59.00;;;29.20;;
21959;SDS011;11144;43.030;25.108;2023-12-29T05:06:52;59.28;;;28.90;;
21959;SDS011;11144;43.030;25.108;2023-12-29T05:08:25;59.30;;;30.15;;
21959;SDS011;11144;43.030;25.108;2023-12-29T05:09:57;56.42;;;28.35;;
21959;SDS011;11144;43.030;25.108;2023-12-29T05:11:31;52.63;;;27.52;;
21959;SDS011;11144;43.030;25.108;2023-12-29T05:13:04;61.15;;;29.45;;
21959;SDS011;11144;43.030;25.108;2023-12-29T05:14:37;55.33;;;28.27;;
21959;SDS011;11144;43.030;25.108;2023-12-29T05:16:10;61.55;;;29.88;;
21959;SDS011;11144;43.030;25.108;2023-12-29T05:17:44;114.25;;;49.75;;
21959;SDS011;11144;43.030;25.108;2023-12-29T05:19:17;50.72;;;24.95;;
21959;SDS011;11144;43.030;25.108;2023-12-29T05:20:51;30.52;;;16.45;;
21959;SDS011;11144;43.030;25.108;2023-12-29T05:22:23;27.02;;;14.73;;
21959;SDS011;11144;43.030;25.108;2023-12-29T05:23:57;17.55;;;10.05;;
21959;SDS011;11144;43.030;25.108;2023-12-29T05:25:29;18.58;;;9.23;;
21959;SDS011;11144;43.030;25.108;2023-12-29T05:27:02;14.35;;;8.40;;
21959;SDS011;11144;43.030;25.108;2023-12-29T05:28:35;21.63;;;10.35;;
21959;SDS011;11144;43.030;25.108;2023-12-29T05:30:09;18.77;;;10.85;;
21959;SDS011;11144;43.030;25.108;2023-12-29T05:31:45;24.15;;;11.40;;
21959;SDS011;11144;43.030;25.108;2023-12-29T05:33:33;19.92;;;10.75;;
21959;SDS011;11144;43.030;25.108;2023-12-29T05:35:07;19.55;;;11.05;;
21959;SDS011;11144;43.030;25.108;2023-12-29T05:36:40;19.73;;;10.52;;
21959;SDS011;11144;43.030;25.108;2023-12-29T05:38:14;25.95;;;13.40;;
21959;SDS011;11144;43.030;25.108;2023-12-29T05:39:47;34.30;;;15.57;;
21959;SDS011;11144;43.030;25.108;2023-12-29T05:41:21;38.47;;;18.80;;
21959;SDS011;11144;43.030;25.108;2023-12-29T05:42:53;49.28;;;22.55;;
21959;SDS011;11144;43.030;25.108;2023-12-29T05:44:26;40.40;;;20.75;;
21959;SDS011;11144;43.030;25.108;2023-12-29T05:45:59;35.67;;;18.38;;
21959;SDS011;11144;43.030;25.108;2023-12-29T05:47:32;30.73;;;16.52;;
21959;SDS011;11144;43.030;25.108;2023-12-29T05:49:06;37.70;;;18.85;;
21959;SDS011;11144;43.030;25.108;2023-12-29T05:50:40;32.78;;;19.02;;
21959;SDS011;11144;43.030;25.108;2023-12-29T05:52:12;37.50;;;22.02;;
21959;SDS011;11144;43.030;25.108;2023-12-29T05:53:45;41.67;;;21.67;;
21959;SDS011;11144;43.030;25.108;2023-12-29T05:55:18;42.22;;;20.48;;
21959;SDS011;11144;43.030;25.108;2023-12-29T05:56:51;33.00;;;18.58;;
21959;SDS011;11144;43.030;25.108;2023-12-29T05:58:25;42.03;;;18.67;;
21959;SDS011;11144;43.030;25.108;2023-12-29T05:59:57;41.05;;;20.60;;
21959;SDS011;11144;43.030;25.108;2023-12-29T06:01:31;37.10;;;19.92;;
21959;SDS011;11144;43.030;25.108;2023-12-29T06:03:04;42.10;;;22.38;;
21959;SDS011;11144;43.030;25.108;2023-12-29T06:04:38;44.33;;;19.98;;
21959;SDS011;11144;43.030;25.108;2023-12-29T06:06:12;44.83;;;20.05;;
21959;SDS011;11144;43.030;25.108;2023-12-29T06:07:44;53.60;;;24.27;;
21959;SDS011;11144;43.030;25.108;2023-12-29T06:09:18;54.05;;;25.20;;
21959;SDS011;11144;43.030;25.108;2023-12-29T06:10:50;71.10;;;32.05;;
21959;SDS011;11144;43.030;25.108;2023-12-29T06:12:24;63.42;;;27.90;;
21959;SDS011;11144;43.030;25.108;2023-12-29T06:13:56;40.10;;;19.38;;
21959;SDS011;11144;43.030;25.108;2023-12-29T06:15:30;25.85;;;13.68;;
21959;SDS011;11144;43.030;25.108;2023-12-29T06:17:02;24.42;;;12.73;;
21959;SDS011;11144;43.030;25.108;2023-12-29T06:18:36;26.58;;;12.15;;
21959;SDS011;11144;43.030;25.108;2023-12-29T06:20:11;24.27;;;11.77;;
21959;SDS011;11144;43.030;25.108;2023-12-29T06:21:44;28.08;;;12.80;;
21959;SDS011;11144;43.030;25.108;2023-12-29T06:23:17;19.52;;;11.02;;
21959;SDS011;11144;43.030;25.108;2023-12-29T06:24:49;28.08;;;11.48;;
21959;SDS011;11144;43.030;25.108;2023-12-29T06:26:23;26.92;;;14.05;;
21959;SDS011;11144;43.030;25.108;2023-12-29T06:27:55;30.33;;;16.98;;
21959;SDS011;11144;43.030;25.108;2023-12-29T06:29:29;39.13;;;21.23;;
21959;SDS011;11144;43.030;25.108;2023-12-29T06:31:02;40.78;;;20.92;;
21959;SDS011;11144;43.030;25.108;2023-12-29T06:32:36;46.50;;;21.83;;
21959;SDS011;11144;43.030;25.108;2023-12-29T06:34:09;41.55;;;20.35;;
21959;SDS011;11144;43.030;25.108;2023-12-29T06:35:43;37.35;;;19.90;;
21959;SDS011;11144;43.030;25.108;2023-12-29T06:37:16;37.30;;;19.75;;
21959;SDS011;11144;43.030;25.108;2023-12-29T06:38:50;45.13;;;22.52;;
21959;SDS011;11144;43.030;25.108;2023-12-29T06:40:24;62.50;;;30.38;;
21959;SDS011;11144;43.030;25.108;2023-12-29T06:41:57;77.18;;;38.05;;
21959;SDS011;11144;43.030;25.108;2023-12-29T06:43:30;70.38;;;33.85;;
21959;SDS011;11144;43.030;25.108;2023-12-29T06:45:04;65.80;;;33.55;;
21959;SDS011;11144;43.030;25.108;2023-12-29T06:46:40;55.60;;;29.13;;
21959;SDS011;11144;43.030;25.108;2023-12-29T06:48:13;68.15;;;29.30;;
21959;SDS011;11144;43.030;25.108;2023-12-29T06:49:46;61.25;;;29.88;;
21959;SDS011;11144;43.030;25.108;2023-12-29T06:51:22;57.63;;;29.42;;
21959;SDS011;11144;43.030;25.108;2023-12-29T06:52:55;61.50;;;28.52;;
21959;SDS011;11144;43.030;25.108;2023-12-29T06:54:28;55.60;;;27.85;;
21959;SDS011;11144;43.030;25.108;2023-12-29T06:56:01;52.42;;;27.00;;
21959;SDS011;11144;43.030;25.108;2023-12-29T06:57:34;47.08;;;25.70;;
21959;SDS011;11144;43.030;25.108;2023-12-29T06:59:07;55.65;;;26.38;;
21959;SDS011;11144;43.030;25.108;2023-12-29T07:00:40;63.03;;;29.10;;
21959;SDS011;11144;43.030;25.108;2023-12-29T07:02:15;48.28;;;25.75;;
21959;SDS011;11144;43.030;25.108;2023-12-29T07:03:48;49.63;;;25.42;;
21959;SDS011;11144;43.030;25.108;2023-12-29T07:05:21;44.80;;;24.95;;
21959;SDS011;11144;43.030;25.108;2023-12-29T07:06:55;49.35;;;24.48;;
21959;SDS011;11144;43.030;25.108;2023-12-29T07:08:28;48.88;;;26.20;;
21959;SDS011;11144;43.030;25.108;2023-12-29T07:10:01;50.90;;;26.42;;
21959;SDS011;11144;43.030;25.108;2023-12-29T07:11:35;50.13;;;26.33;;
21959;SDS011;11144;43.030;25.108;2023-12-29T07:13:09;65.63;;;29.27;;
21959;SDS011;11144;43.030;25.108;2023-12-29T07:14:41;59.30;;;29.33;;
21959;SDS011;11144;43.030;25.108;2023-12-29T07:16:15;80.78;;;35.38;;
21959;SDS011;11144;43.030;25.108;2023-12-29T07:17:51;67.63;;;33.58;;
21959;SDS011;11144;43.030;25.108;2023-12-29T07:19:25;105.50;;;45.20;;
21959;SDS011;11144;43.030;25.108;2023-12-29T07:20:59;88.47;;;45.60;;
21959;SDS011;11144;43.030;25.108;2023-12-29T07:22:34;88.60;;;43.35;;
21959;SDS011;11144;43.030;25.108;2023-12-29T07:24:06;46.95;;;24.48;;
21959;SDS011;11144;43.030;25.108;2023-12-29T07:25:41;31.42;;;17.40;;
21959;SDS011;11144;43.030;25.108;2023-12-29T07:27:13;39.17;;;20.42;;
21959;SDS011;11144;43.030;25.108;2023-12-29T07:28:47;45.17;;;21.88;;
21959;SDS011;11144;43.030;25.108;2023-12-29T07:30:19;45.40;;;23.38;;
21959;SDS011;11144;43.030;25.108;2023-12-29T07:31:53;45.80;;;25.52;;
21959;SDS011;11144;43.030;25.108;2023-12-29T07:33:25;45.05;;;25.17;;
21959;SDS011;11144;43.030;25.108;2023-12-29T07:34:58;38.85;;;20.15;;
21959;SDS011;11144;43.030;25.108;2023-12-29T07:36:32;29.70;;;18.20;;
21959;SDS011;11144;43.030;25.108;2023-12-29T07:38:06;41.25;;;22.67;;
21959;SDS011;11144;43.030;25.108;2023-12-29T07:39:39;34.97;;;20.50;;
21959;SDS011;11144;43.030;25.108;2023-12-29T07:41:12;38.70;;;23.33;;
21959;SDS011;11144;43.030;25.108;2023-12-29T07:42:46;52.25;;;23.52;;
21959;SDS011;11144;43.030;25.108;2023-12-29T07:44:22;39.95;;;20.80;;
21959;SDS011;11144;43.030;25.108;2023-12-29T07:45:54;39.13;;;22.75;;
21959;SDS011;11144;43.030;25.108;2023-12-29T07:47:28;36.72;;;19.85;;
21959;SDS011;11144;43.030;25.108;2023-12-29T07:49:01;30.95;;;19.17;;
21959;SDS011;11144;43.030;25.108;2023-12-29T07:50:34;33.58;;;19.63;;
21959;SDS011;11144;43.030;25.108;2023-12-29T07:52:08;24.70;;;14.93;;
21959;SDS011;11144;43.030;25.108;2023-12-29T07:53:42;29.58;;;16.30;;
21959;SDS011;11144;43.030;25.108;2023-12-29T07:55:15;26.92;;;16.20;;
21959;SDS011;11144;43.030;25.108;2023-12-29T07:56:49;34.30;;;17.92;;
21959;SDS011;11144;43.030;25.108;2023-12-29T07:58:22;27.95;;;17.17;;
21959;SDS011;11144;43.030;25.108;2023-12-29T07:59:55;29.25;;;18.42;;
21959;SDS011;11144;43.030;25.108;2023-12-29T08:01:28;34.25;;;20.35;;
21959;SDS011;11144;43.030;25.108;2023-12-29T08:03:02;33.28;;;21.13;;
21959;SDS011;11144;43.030;25.108;2023-12-29T08:04:35;38.72;;;23.33;;
21959;SDS011;11144;43.030;25.108;2023-12-29T08:06:08;40.45;;;25.40;;
21959;SDS011;11144;43.030;25.108;2023-12-29T08:07:41;33.80;;;17.40;;
21959;SDS011;11144;43.030;25.108;2023-12-29T08:09:16;58.58;;;35.78;;
21959;SDS011;11144;43.030;25.108;2023-12-29T08:10:48;40.55;;;26.63;;
21959;SDS011;11144;43.030;25.108;2023-12-29T08:12:21;29.15;;;19.13;;
21959;SDS011;11144;43.030;25.108;2023-12-29T08:13:53;35.97;;;21.50;;
21959;SDS011;11144;43.030;25.108;2023-12-29T08:15:27;32.00;;;17.73;;
21959;SDS011;11144;43.030;25.108;2023-12-29T08:17:00;33.47;;;16.77;;
21959;SDS011;11144;43.030;25.108;2023-12-29T08:18:33;35.38;;;22.98;;
21959;SDS011;11144;43.030;25.108;2023-12-29T08:20:07;34.22;;;20.30;;
21959;SDS011;11144;43.030;25.108;2023-12-29T08:21:40;22.10;;;15.75;;
21959;SDS011;11144;43.030;25.108;2023-12-29T08:23:13;25.27;;;16.67;;
21959;SDS011;11144;43.030;25.108;2023-12-29T08:24:47;25.05;;;15.63;;
21959;SDS011;11144;43.030;25.108;2023-12-29T08:26:20;25.90;;;15.88;;
21959;SDS011;11144;43.030;25.108;2023-12-29T08:27:52;33.10;;;18.35;;
21959;SDS011;11144;43.030;25.108;2023-12-29T08:29:26;24.10;;;14.60;;
21959;SDS011;11144;43.030;25.108;2023-12-29T08:30:58;23.75;;;13.52;;
21959;SDS011;11144;43.030;25.108;2023-12-29T08:32:32;24.48;;;14.68;;
21959;SDS011;11144;43.030;25.108;2023-12-29T08:34:05;24.08;;;15.15;;
21959;SDS011;11144;43.030;25.108;2023-12-29T08:35:39;21.92;;;14.48;;
21959;SDS011;11144;43.030;25.108;2023-12-29T08:37:11;24.05;;;14.55;;
21959;SDS011;11144;43.030;25.108;2023-12-29T08:38:47;20.90;;;14.48;;
21959;SDS011;11144;43.030;25.108;2023-12-29T08:40:21;28.50;;;14.68;;
21959;SDS011;11144;43.030;25.108;2023-12-29T08:41:54;22.42;;;16.10;;
21959;SDS011;11144;43.030;25.108;2023-12-29T08:43:27;26.00;;;15.90;;
21959;SDS011;11144;43.030;25.108;2023-12-29T08:45:00;27.02;;;16.67;;
21959;SDS011;11144;43.030;25.108;2023-12-29T08:46:33;25.40;;;16.52;;
21959;SDS011;11144;43.030;25.108;2023-12-29T08:48:07;28.08;;;17.60;;
21959;SDS011;11144;43.030;25.108;2023-12-29T08:49:40;31.40;;;19.23;;
21959;SDS011;11144;43.030;25.108;2023-12-29T08:51:13;33.53;;;19.20;;
21959;SDS011;11144;43.030;25.108;2023-12-29T08:52:47;74.10;;;39.05;;
21959;SDS011;11144;43.030;25.108;2023-12-29T08:54:19;46.30;;;25.88;;
21959;SDS011;11144;43.030;25.108;2023-12-29T08:55:54;64.05;;;31.63;;
21959;SDS011;11144;43.030;25.108;2023-12-29T08:57:26;44.85;;;22.33;;
21959;SDS011;11144;43.030;25.108;2023-12-29T08:59:00;42.78;;;24.85;;
21959;SDS011;11144;43.030;25.108;2023-12-29T09:00:32;41.55;;;24.48;;